Terminal Aerodrome Forecast
Issued by NWS

Home | Current Version | Previous Version | Graphics & Text | Print | Product List | Glossary On
Versions: 1 2 3 4 5 6 7 8 9 10 11 12 13 14 15 16 17 18 19 20 21 22 23 24 25 26 27 28 29 30 31 32 33
000
FTUS43 KLOT 252100 AAB
TAFORD
TAF AMD
KORD 252107Z 2521/2624 04007KT 6SM -SN BKN035 OVC040
     FM252200 05007KT 1 1/2SM -SN BR BKN020 OVC030
     FM260000 04009KT 1SM -SN BR SCT010 BKN018 OVC025
      TEMPO 2601/2605 3/4SM -SN BR SCT009 OVC012
     FM260800 03013G18KT 3SM -SN BKN014 OVC020
     FM261800 35012G17KT P6SM BKN030=

USA.gov is the U.S. government's official web portal to all federal, state and local government web resources and services.